Time;durP1;ratioP1;P1;durP2;ratioP2;P2;SDS_P1;SDS_P2;PMS_P1;PMS_P2;Temp;Humidity;BMP_temperature;BMP_pressure;BME280_temperature;BME280_humidity;BME280_pressure;Samples;Min_cycle;Max_cycle;Signal;HPM_P1;HPM_P2
2021/07/07 00:01:30;;;;;;;1999.90;999.90;;;5.90;99.90;;;;;;5071484;28;20161;-45
2021/07/07 00:03:56;;;;;;;1999.90;999.90;;;6.00;99.90;;;;;;5070749;28;20190;-45
2021/07/07 00:06:23;;;;;;;1999.90;999.90;;;6.00;99.90;;;;;;5070766;28;20172;-45
2021/07/07 00:08:50;;;;;;;1999.90;999.90;;;5.90;99.90;;;;;;5071393;28;20573;-45
2021/07/07 00:11:18;;;;;;;1999.90;999.90;;;5.90;99.90;;;;;;5070877;28;20251;-45
2021/07/07 00:13:45;;;;;;;1999.90;999.90;;;5.90;99.90;;;;;;5071411;28;20160;-45
2021/07/07 00:16:12;;;;;;;1999.90;999.90;;;5.80;99.90;;;;;;5071497;28;20171;-45
2021/07/07 00:18:39;;;;;;;1999.90;999.90;;;5.80;99.90;;;;;;5070924;28;20178;-46
2021/07/07 00:21:08;;;;;;;1999.90;999.90;;;5.90;99.90;;;;;;5071116;28;20169;-46
2021/07/07 00:23:35;;;;;;;1999.90;999.90;;;5.80;99.90;;;;;;5070997;28;20210;-45
2021/07/07 00:26:02;;;;;;;1999.90;999.90;;;5.80;99.90;;;;;;5070847;28;20180;-45
2021/07/07 00:28:29;;;;;;;1999.90;999.90;;;5.80;99.90;;;;;;5070885;28;20174;-45
2021/07/07 00:30:56;;;;;;;1999.90;999.90;;;5.80;99.90;;;;;;5070799;28;20603;-46
2021/07/07 00:33:24;;;;;;;1999.90;999.90;;;5.70;99.90;;;;;;5070496;28;20173;-46
2021/07/07 00:35:51;;;;;;;1999.90;999.90;;;5.80;99.90;;;;;;5071187;28;20229;-45
2021/07/07 00:38:17;;;;;;;1999.90;999.90;;;5.80;99.90;;;;;;5071252;28;20172;-46
2021/07/07 00:40:45;;;;;;;1999.90;999.90;;;5.80;99.90;;;;;;5070953;28;20305;-46
2021/07/07 00:43:15;;;;;;;1999.90;999.90;;;5.80;99.90;;;;;;5074337;28;20196;-47
2021/07/07 00:45:43;;;;;;;1999.90;999.90;;;5.80;99.90;;;;;;5074387;28;20175;-45
2021/07/07 00:48:10;;;;;;;1999.90;999.90;;;5.80;99.90;;;;;;5074610;28;20246;-45
2021/07/07 00:50:37;;;;;;;1999.90;999.90;;;5.80;99.90;;;;;;5074523;28;21018;-48
2021/07/07 00:53:04;;;;;;;1999.90;999.90;;;5.70;99.90;;;;;;5074447;28;20656;-45
2021/07/07 00:55:32;;;;;;;1999.90;999.90;;;5.70;99.90;;;;;;5074385;28;20162;-46
2021/07/07 00:58:00;;;;;;;1999.90;999.90;;;5.70;99.90;;;;;;5074538;28;20583;-47
2021/07/07 01:00:27;;;;;;;1999.90;999.90;;;5.70;99.90;;;;;;5074266;28;20166;-45
2021/07/07 01:02:57;;;;;;;1999.90;999.90;;;5.70;99.90;;;;;;5074468;28;20743;-46
2021/07/07 01:05:24;;;;;;;1999.90;999.90;;;5.60;99.90;;;;;;5074300;28;20550;-45
2021/07/07 01:07:51;;;;;;;1999.90;999.90;;;5.50;99.90;;;;;;5073954;28;20609;-46
2021/07/07 01:10:18;;;;;;;1999.90;999.90;;;5.40;99.90;;;;;;5074638;28;20196;-47
2021/07/07 01:12:46;;;;;;;1999.90;999.90;;;5.40;99.90;;;;;;5073747;28;20744;-45
2021/07/07 01:15:15;;;;;;;1999.90;999.90;;;5.30;99.90;;;;;;5073984;28;20663;-46
2021/07/07 01:17:43;;;;;;;1999.90;999.90;;;5.20;99.90;;;;;;5073976;28;20200;-45
2021/07/07 01:20:15;;;;;;;1999.90;999.90;;;5.10;99.90;;;;;;5073717;28;20183;-46
2021/07/07 01:22:43;;;;;;;1999.90;999.90;;;5.10;99.90;;;;;;5074168;28;20244;-48
2021/07/07 01:25:13;;;;;;;1999.90;999.90;;;5.00;99.90;;;;;;5073726;28;20572;-50
2021/07/07 01:27:41;;;;;;;1999.90;999.90;;;4.90;99.90;;;;;;5073614;28;20189;-46
2021/07/07 01:30:11;;;;;;;1999.90;999.90;;;4.90;99.90;;;;;;5073963;28;20173;-45
2021/07/07 01:32:38;;;;;;;1999.90;999.90;;;4.90;99.90;;;;;;5073701;28;20183;-44
2021/07/07 01:35:05;;;;;;;1999.90;999.90;;;4.90;99.90;;;;;;5073591;28;20177;-45
2021/07/07 01:37:32;;;;;;;1999.90;999.90;;;4.90;99.90;;;;;;5074060;28;20176;-46
2021/07/07 01:39:59;;;;;;;1999.90;999.90;;;4.80;99.90;;;;;;5073583;28;20175;-45
2021/07/07 01:42:26;;;;;;;1999.90;999.90;;;4.90;99.90;;;;;;5073185;28;20192;-45
2021/07/07 01:44:52;;;;;;;1999.90;999.90;;;4.90;99.90;;;;;;5073618;28;20172;-45
2021/07/07 01:47:19;;;;;;;1999.90;999.90;;;4.90;99.90;;;;;;5073145;28;20247;-45
2021/07/07 01:49:46;;;;;;;1999.90;999.90;;;5.00;99.90;;;;;;5073523;28;20165;-45
2021/07/07 01:52:12;;;;;;;1999.90;999.90;;;4.90;99.90;;;;;;5073603;28;20210;-45
2021/07/07 01:54:39;;;;;;;1999.90;999.90;;;5.00;99.90;;;;;;5072598;28;20317;-44
2021/07/07 01:57:06;;;;;;;1999.90;999.90;;;5.00;99.90;;;;;;5073468;28;20192;-45
2021/07/07 01:59:33;;;;;;;1999.90;999.90;;;4.90;99.90;;;;;;5073310;28;20196;-44
2021/07/07 02:02:00;;;;;;;1999.90;999.90;;;4.90;99.90;;;;;;5055067;28;20254;-45
2021/07/07 02:04:27;;;;;;;1999.90;999.90;;;4.90;99.90;;;;;;5073150;28;20611;-45
2021/07/07 02:06:53;;;;;;;1999.90;999.90;;;4.90;99.90;;;;;;5073180;28;20173;-45
2021/07/07 02:09:20;;;;;;;1999.90;999.90;;;4.90;99.90;;;;;;5072969;28;20172;-47
2021/07/07 02:11:48;;;;;;;1999.90;999.90;;;4.90;99.90;;;;;;5071987;28;20224;-46
2021/07/07 02:14:16;;;;;;;1999.90;999.90;;;5.10;99.90;;;;;;5072857;28;20192;-45
2021/07/07 02:16:44;;;;;;;1999.90;999.90;;;5.00;99.90;;;;;;5072684;28;20532;-45
2021/07/07 02:19:12;;;;;;;1999.90;999.90;;;5.00;99.90;;;;;;5073249;28;20641;-45
2021/07/07 02:21:39;;;;;;;1999.90;999.90;;;5.00;99.90;;;;;;5072933;28;20532;-45
2021/07/07 02:24:06;;;;;;;1999.90;999.90;;;5.00;99.90;;;;;;5072852;28;20655;-45
2021/07/07 02:26:33;;;;;;;1999.90;999.90;;;5.00;99.90;;;;;;5072855;28;20173;-46
2021/07/07 02:29:00;;;;;;;1999.90;999.90;;;5.00;99.90;;;;;;5072905;28;20262;-45
2021/07/07 02:31:27;;;;;;;1999.90;999.90;;;5.00;99.90;;;;;;5072643;28;20229;-45
2021/07/07 02:33:53;;;;;;;1999.90;999.90;;;5.00;99.90;;;;;;5072509;28;20179;-45
2021/07/07 02:36:20;;;;;;;1999.90;999.90;;;4.90;99.90;;;;;;5072135;28;20168;-45
2021/07/07 02:38:47;;;;;;;1999.90;999.90;;;5.00;99.90;;;;;;5072399;28;20179;-45
2021/07/07 02:41:14;;;;;;;1999.90;999.90;;;5.00;99.90;;;;;;5072747;28;20183;-45
2021/07/07 02:43:40;;;;;;;1999.90;999.90;;;4.90;99.90;;;;;;5072084;28;20242;-45
2021/07/07 02:46:08;;;;;;;1999.90;999.90;;;4.90;99.90;;;;;;5072764;28;20181;-45
2021/07/07 02:48:34;;;;;;;1999.90;999.90;;;4.80;99.90;;;;;;5071936;28;20376;-45
2021/07/07 02:51:01;;;;;;;1999.90;999.90;;;4.80;99.90;;;;;;5072067;28;20182;-46
2021/07/07 02:53:28;;;;;;;1999.90;999.90;;;4.70;99.90;;;;;;5072611;28;20185;-44
2021/07/07 02:55:54;;;;;;;1999.90;999.90;;;4.70;99.90;;;;;;5072043;28;20169;-45
2021/07/07 02:58:21;;;;;;;1999.90;999.90;;;4.70;99.90;;;;;;5072144;28;20187;-45
2021/07/07 03:00:50;;;;;;;1999.90;999.90;;;4.70;99.90;;;;;;5072425;28;20167;-45
2021/07/07 03:03:24;;;;;;;1999.90;999.90;;;4.70;99.90;;;;;;5072057;28;20204;-45
2021/07/07 03:05:54;;;;;;;1999.90;999.90;;;4.70;99.90;;;;;;5071173;28;20179;-45
2021/07/07 03:08:23;;;;;;;1999.90;999.90;;;4.70;99.90;;;;;;5072010;28;20168;-45
2021/07/07 03:10:50;;;;;;;1999.90;999.90;;;4.60;99.90;;;;;;5071910;28;20622;-45
2021/07/07 03:13:19;;;;;;;1999.90;999.90;;;4.50;99.90;;;;;;5071857;28;20234;-45
2021/07/07 03:15:47;;;;;;;1999.90;999.90;;;4.50;99.90;;;;;;5071776;28;20249;-45
2021/07/07 03:18:14;;;;;;;1999.90;999.90;;;4.60;99.90;;;;;;5071490;28;20173;-45
2021/07/07 03:20:42;;;;;;;1999.90;999.90;;;4.60;99.90;;;;;;5072082;28;20538;-45
2021/07/07 03:23:12;;;;;;;1999.90;999.90;;;4.50;99.90;;;;;;5053186;28;20244;-45
2021/07/07 03:25:40;;;;;;;1999.90;999.90;;;4.60;99.90;;;;;;5071388;28;20247;-45
2021/07/07 03:28:07;;;;;;;1999.90;999.90;;;4.50;99.90;;;;;;5071590;28;20177;-45
2021/07/07 03:30:34;;;;;;;1999.90;999.90;;;4.50;99.90;;;;;;5071228;28;20180;-45
2021/07/07 03:33:01;;;;;;;1999.90;999.90;;;4.50;99.90;;;;;;5071727;28;20173;-45
2021/07/07 03:35:28;;;;;;;1999.90;999.90;;;4.50;99.90;;;;;;5071603;28;20537;-47
2021/07/07 03:37:56;;;;;;;1999.90;999.90;;;4.50;99.90;;;;;;5071513;28;20194;-45
2021/07/07 03:40:24;;;;;;;1999.90;999.90;;;4.50;99.90;;;;;;5071389;28;20233;-45
2021/07/07 03:42:51;;;;;;;1999.90;999.90;;;4.60;99.90;;;;;;5071519;28;20198;-45
2021/07/07 03:45:19;;;;;;;1999.90;999.90;;;4.60;99.90;;;;;;5071470;28;20740;-47
2021/07/07 03:47:46;;;;;;;1999.90;999.90;;;4.60;99.90;;;;;;5071730;28;20181;-45
2021/07/07 03:50:14;;;;;;;1999.90;999.90;;;4.70;99.90;;;;;;5071295;28;20192;-47
2021/07/07 03:52:41;;;;;;;1999.90;999.90;;;4.60;99.90;;;;;;5070909;28;20173;-46
2021/07/07 03:55:09;;;;;;;1999.90;999.90;;;4.60;99.90;;;;;;5071419;28;20619;-50
2021/07/07 03:57:36;;;;;;;1999.90;999.90;;;4.50;99.90;;;;;;5071111;28;20167;-47
2021/07/07 04:00:06;;;;;;;1999.90;999.90;;;4.50;99.90;;;;;;5053142;28;20184;-45
2021/07/07 04:02:33;;;;;;;1999.90;999.90;;;4.50;99.90;;;;;;5071425;28;20688;-45
2021/07/07 04:05:00;;;;;;;1999.90;999.90;;;4.40;99.90;;;;;;5071162;28;20206;-45
2021/07/07 04:07:27;;;;;;;1999.90;999.90;;;4.40;99.90;;;;;;5071253;28;20258;-46
2021/07/07 04:09:53;;;;;;;1999.90;999.90;;;4.30;99.90;;;;;;5070891;28;20185;-46
2021/07/07 04:12:20;;;;;;;1999.90;999.90;;;4.30;99.90;;;;;;5070846;28;20222;-45
2021/07/07 04:14:47;;;;;;;1999.90;999.90;;;4.20;99.90;;;;;;5071229;28;20635;-44
2021/07/07 04:17:14;;;;;;;1999.90;999.90;;;4.20;99.90;;;;;;5073067;28;20187;-44
2021/07/07 04:19:40;;;;;;;1999.90;999.90;;;4.30;99.90;;;;;;5074974;28;20553;-47
2021/07/07 04:22:07;;;;;;;1999.90;999.90;;;4.20;99.90;;;;;;5075263;28;20203;-46
2021/07/07 04:24:34;;;;;;;1999.90;999.90;;;4.30;99.90;;;;;;5074706;28;20226;-45
2021/07/07 04:27:01;;;;;;;1999.90;999.90;;;4.40;99.90;;;;;;5074384;28;20183;-45
2021/07/07 04:29:28;;;;;;;1999.90;999.90;;;4.30;99.90;;;;;;5075223;28;20179;-45
2021/07/07 04:31:57;;;;;;;1999.90;999.90;;;4.30;99.90;;;;;;5074369;28;20181;-44
2021/07/07 04:34:26;;;;;;;1999.90;999.90;;;4.20;99.90;;;;;;5074505;28;20262;-45
2021/07/07 04:36:54;;;;;;;1999.90;999.90;;;4.20;99.90;;;;;;5074831;28;20171;-45
2021/07/07 04:39:20;;;;;;;1999.90;999.90;;;4.10;99.90;;;;;;5074212;28;20172;-45
2021/07/07 04:41:47;;;;;;;1999.90;999.90;;;4.10;99.90;;;;;;5074859;28;20167;-45
2021/07/07 04:44:14;;;;;;;1999.90;999.90;;;4.10;99.90;;;;;;5074596;28;20174;-45
2021/07/07 04:46:41;;;;;;;1999.90;999.90;;;4.10;99.90;;;;;;5074486;28;20538;-46
2021/07/07 04:49:08;;;;;;;1999.90;999.90;;;4.00;99.90;;;;;;5074636;28;20165;-45
2021/07/07 04:51:35;;;;;;;1999.90;999.90;;;4.00;99.90;;;;;;5074630;28;20259;-45
2021/07/07 04:54:03;;;;;;;1999.90;999.90;;;4.10;99.90;;;;;;5074534;28;20176;-46
2021/07/07 04:56:30;;;;;;;1999.90;999.90;;;4.10;99.90;;;;;;5074688;28;20212;-46
2021/07/07 04:58:56;;;;;;;1999.90;999.90;;;4.10;99.90;;;;;;5074427;28;20176;-47
2021/07/07 05:01:23;;;;;;;1999.90;999.90;;;4.00;99.90;;;;;;5074054;28;20204;-46
2021/07/07 05:03:50;;;;;;;1999.90;999.90;;;4.00;99.90;;;;;;5074405;28;20254;-45
2021/07/07 05:06:17;;;;;;;1999.90;999.90;;;4.00;99.90;;;;;;5073994;28;20658;-45
2021/07/07 05:08:43;;;;;;;1999.90;999.90;;;3.90;99.90;;;;;;5073869;28;20697;-45
2021/07/07 05:11:10;;;;;;;1999.90;999.90;;;3.80;99.90;;;;;;5074227;28;20255;-46
2021/07/07 05:13:38;;;;;;;1999.90;999.90;;;3.90;99.90;;;;;;5073798;28;20165;-45
2021/07/07 05:16:05;;;;;;;1999.90;999.90;;;3.80;99.90;;;;;;5073965;28;20533;-45
2021/07/07 05:18:32;;;;;;;1999.90;999.90;;;3.80;99.90;;;;;;5073894;28;20267;-46
2021/07/07 05:20:59;;;;;;;1999.90;999.90;;;3.90;99.90;;;;;;5073612;28;20183;-45
2021/07/07 05:23:25;;;;;;;1999.90;999.90;;;3.80;99.90;;;;;;5073423;28;20220;-45
2021/07/07 05:25:52;;;;;;;1999.90;999.90;;;3.80;99.90;;;;;;5074091;28;20172;-46
2021/07/07 05:28:19;;;;;;;1999.90;999.90;;;3.80;99.90;;;;;;5072743;28;20196;-46
2021/07/07 05:30:46;;;;;;;1999.90;999.90;;;3.70;99.90;;;;;;5073974;28;20180;-45
2021/07/07 05:33:13;;;;;;;1999.90;999.90;;;3.70;99.90;;;;;;5073430;28;20263;-45
2021/07/07 05:35:40;;;;;;;1999.90;999.90;;;3.70;99.90;;;;;;5073277;28;20184;-46
2021/07/07 05:38:07;;;;;;;1999.90;999.90;;;3.70;99.90;;;;;;5073731;28;20581;-45
2021/07/07 05:40:34;;;;;;;1999.90;999.90;;;3.70;99.90;;;;;;5072873;28;20181;-46
2021/07/07 05:43:00;;;;;;;1999.90;999.90;;;3.70;99.90;;;;;;5073174;28;20208;-49
2021/07/07 05:45:28;;;;;;;1999.90;999.90;;;3.60;99.90;;;;;;5073273;28;20180;-46
2021/07/07 05:47:56;;;;;;;1999.90;999.90;;;3.70;99.90;;;;;;5073099;28;20305;-47
2021/07/07 05:50:24;;;;;;;1999.90;999.90;;;3.90;99.90;;;;;;5073497;28;20252;-46
2021/07/07 05:52:51;;;;;;;1999.90;999.90;;;3.80;99.90;;;;;;5073245;28;20230;-49
2021/07/07 05:55:20;;;;;;;1999.90;999.90;;;3.80;99.90;;;;;;5071911;28;20172;-46
2021/07/07 05:57:47;;;;;;;1999.90;999.90;;;3.80;99.90;;;;;;5073116;28;20176;-46
2021/07/07 06:00:19;;;;;;;1999.90;999.90;;;3.80;99.90;;;;;;5073051;28;20230;-45
2021/07/07 06:02:51;;;;;;;1999.90;999.90;;;3.90;99.90;;;;;;5072536;28;20211;-57
2021/07/07 06:05:19;;;;;;;1999.90;999.90;;;4.90;99.90;;;;;;5073251;28;20214;-52
2021/07/07 06:07:46;;;;;;;1999.90;999.90;;;6.00;99.90;;;;;;5072903;28;20209;-43
2021/07/07 06:10:16;;;;;;;1999.90;999.90;;;6.70;99.90;;;;;;5072467;28;20225;-58
2021/07/07 06:12:44;;;;;;;1999.90;999.90;;;6.50;99.90;;;;;;5072937;28;20234;-56
2021/07/07 06:15:13;;;;;;;1999.90;999.90;;;6.80;99.90;;;;;;5072701;28;20171;-54
2021/07/07 06:17:41;;;;;;;1999.90;999.90;;;6.70;99.90;;;;;;5072829;28;20727;-47
2021/07/07 06:20:11;;;;;;;1999.90;999.90;;;6.40;99.90;;;;;;5072146;28;20205;-43
2021/07/07 06:22:38;;;;;;;1999.90;999.90;;;6.10;99.90;;;;;;5072015;28;20203;-42
2021/07/07 06:25:07;;;;;;;1999.90;999.90;;;5.80;99.90;;;;;;5070449;28;20193;-46
2021/07/07 06:27:39;;;;;;;1999.90;999.90;;;5.60;99.90;;;;;;5072064;28;20177;-46
2021/07/07 06:30:08;;;;;;;1999.90;999.90;;;5.40;99.90;;;;;;5072049;28;20521;-46
2021/07/07 06:32:35;;;;;;;1999.90;999.90;;;5.40;99.90;;;;;;5072481;28;20259;-46
2021/07/07 06:35:01;;;;;;;1999.90;999.90;;;5.40;99.90;;;;;;5072098;28;20200;-45
2021/07/07 06:37:29;;;;;;;1999.90;999.90;;;5.30;99.90;;;;;;5071824;28;20680;-54
2021/07/07 06:39:56;;;;;;;1999.90;999.90;;;5.40;99.90;;;;;;5072396;28;20169;-42
2021/07/07 06:42:23;;;;;;;1999.90;999.90;;;5.40;99.90;;;;;;5071696;28;20207;-47
2021/07/07 06:44:50;;;;;;;1999.90;999.90;;;5.60;99.90;;;;;;5071827;28;20180;-44
2021/07/07 06:47:17;;;;;;;1999.90;999.90;;;5.80;99.90;;;;;;5072435;28;20193;-43
2021/07/07 06:49:43;;;;;;;1999.90;999.90;;;5.90;99.90;;;;;;5070351;28;20180;-45
2021/07/07 06:52:10;;;;;;;1999.90;999.90;;;5.90;99.90;;;;;;5071774;28;20412;-49
2021/07/07 06:54:37;;;;;;;1999.90;999.90;;;6.00;99.90;;;;;;5071212;28;20160;-55
2021/07/07 06:57:04;;;;;;;1999.90;999.90;;;6.00;99.90;;;;;;5072044;28;20487;-41
2021/07/07 06:59:31;;;;;;;1999.90;999.90;;;6.10;99.90;;;;;;5071526;28;20619;-43
2021/07/07 07:01:58;;;;;;;1999.90;999.90;;;6.10;99.90;;;;;;5071025;28;20617;-43
2021/07/07 07:04:26;;;;;;;1999.90;999.90;;;6.10;99.90;;;;;;5071049;28;20605;-50
2021/07/07 07:06:53;;;;;;;1999.90;999.90;;;6.10;99.90;;;;;;5071327;28;20182;-45
2021/07/07 07:09:20;;;;;;;1999.90;999.90;;;6.10;99.90;;;;;;5071824;28;20259;-48
2021/07/07 07:11:47;;;;;;;1999.90;999.90;;;6.50;99.90;;;;;;5070923;28;20227;-52
2021/07/07 07:14:13;;;;;;;1999.90;999.90;;;7.50;99.90;;;;;;5071621;28;20649;-56
2021/07/07 07:16:42;;;;;;;1999.90;999.90;;;8.70;99.90;;;;;;5071218;28;20207;-42
2021/07/07 07:19:09;;;;;;;1999.90;999.90;;;9.50;99.90;;;;;;5071107;28;20176;-46
2021/07/07 07:21:36;;;;;;;1999.90;999.90;;;8.90;99.90;;;;;;5071330;28;20172;-48
2021/07/07 07:24:06;;;;;;;1999.90;999.90;;;8.50;99.90;;;;;;5070659;28;20230;-46
2021/07/07 07:26:33;;;;;;;1999.90;999.90;;;8.20;99.90;;;;;;5071021;28;20181;-46
2021/07/07 07:29:01;;;;;;;1999.90;999.90;;;7.90;99.90;;;;;;5071156;28;20549;-40
2021/07/07 07:31:28;;;;;;;1999.90;999.90;;;7.80;99.90;;;;;;5070804;28;20573;-43
2021/07/07 07:33:54;;;;;;;1999.90;999.90;;;7.40;99.90;;;;;;5070727;28;20207;-40
2021/07/07 07:36:22;;;;;;;1999.90;999.90;;;7.50;99.90;;;;;;5071202;28;20222;-41
2021/07/07 07:38:58;;;;;;;1999.90;999.90;;;7.60;99.90;;;;;;5071053;28;20174;-47
2021/07/07 07:41:28;;;;;;;1999.90;999.90;;;7.60;99.90;;;;;;5071241;28;20525;-42
2021/07/07 07:43:55;;;;;;;1999.90;999.90;;;7.70;99.90;;;;;;5070776;28;20207;-43
2021/07/07 07:46:24;;;;;;;1999.90;999.90;;;7.90;99.90;;;;;;5070811;28;20173;-43
2021/07/07 07:48:51;;;;;;;1999.90;999.90;;;8.30;99.90;;;;;;5071010;28;20179;-41
2021/07/07 07:51:17;;;;;;;1999.90;999.90;;;8.60;99.90;;;;;;5069039;28;20218;-42
2021/07/07 07:53:46;;;;;;;1999.90;999.90;;;8.60;99.90;;;;;;5071093;28;20510;-44
2021/07/07 07:56:13;;;;;;;1999.90;999.90;;;8.70;99.90;;;;;;5071165;28;20259;-53
2021/07/07 07:58:40;;;;;;;1999.90;999.90;;;8.60;99.90;;;;;;5071403;28;20200;-49
2021/07/07 08:01:06;;;;;;;1999.90;999.90;;;8.60;99.90;;;;;;5071086;28;20175;-40
2021/07/07 08:03:35;;;;;;;1999.90;999.90;;;8.60;99.90;;;;;;5070977;28;20207;-41
2021/07/07 08:06:02;;;;;;;1999.90;999.90;;;8.70;99.90;;;;;;5070919;28;20670;-40
2021/07/07 08:08:29;;;;;;;1999.90;999.90;;;8.60;99.90;;;;;;5070893;28;20643;-59
2021/07/07 08:10:55;;;;;;;1999.90;999.90;;;8.80;99.90;;;;;;5070953;28;20179;-43
2021/07/07 08:13:22;;;;;;;1999.90;999.90;;;9.00;99.90;;;;;;5070318;28;20297;-41
2021/07/07 08:15:49;;;;;;;1999.90;999.90;;;9.10;99.90;;;;;;5071401;28;20176;-44
2021/07/07 08:18:16;;;;;;;1999.90;999.90;;;9.20;99.90;;;;;;5070684;28;20171;-43
2021/07/07 08:20:42;;;;;;;1999.90;999.90;;;9.40;99.90;;;;;;5069006;28;20184;-42
2021/07/07 08:23:09;;;;;;;1999.90;999.90;;;9.50;99.90;;;;;;5071219;28;20196;-42
2021/07/07 08:25:36;;;;;;;1999.90;999.90;;;9.70;99.90;;;;;;5070926;28;20576;-42
2021/07/07 08:28:03;;;;;;;1999.90;999.90;;;9.70;99.90;;;;;;5070605;28;20181;-45
2021/07/07 08:30:31;;;;;;;1999.90;999.90;;;9.80;99.90;;;;;;5071045;28;20168;-42
2021/07/07 08:32:57;;;;;;;1999.90;999.90;;;10.00;99.90;;;;;;5070705;28;20200;-47
2021/07/07 08:35:24;;;;;;;1999.90;999.90;;;10.10;99.90;;;;;;5070960;28;20526;-42
2021/07/07 08:37:51;;;;;;;1999.90;999.90;;;10.30;99.90;;;;;;5070851;28;20171;-42
2021/07/07 08:40:18;;;;;;;1999.90;999.90;;;10.40;99.90;;;;;;5070803;28;20161;-42
2021/07/07 08:42:46;;;;;;;1999.90;999.90;;;10.50;99.90;;;;;;5070623;28;20287;-41
2021/07/07 08:45:17;;;;;;;1999.90;999.90;;;10.60;99.90;;;;;;5070716;28;20267;-43
2021/07/07 08:47:45;;;;;;;1999.90;999.90;;;10.70;99.90;;;;;;5070110;28;20181;-43
2021/07/07 08:50:15;;;;;;;1999.90;999.90;;;10.90;99.90;;;;;;5070999;28;20263;-43
2021/07/07 08:52:42;;;;;;;1999.90;999.90;;;11.00;99.90;;;;;;5070652;28;21108;-47
2021/07/07 08:55:12;;;;;;;1999.90;999.90;;;11.20;99.90;;;;;;5070564;28;20221;-59
2021/07/07 08:57:43;;;;;;;1999.90;999.90;;;12.10;99.90;;;;;;5070945;28;20168;-48
2021/07/07 09:00:38;;;;;;;1999.90;999.90;;;13.20;99.90;;;;;;5070365;28;20161;-45
2021/07/07 09:03:04;;;;;;;1999.90;999.90;;;14.20;99.90;;;;;;5071741;28;20242;-56
2021/07/07 09:05:47;;;;;;;1999.90;999.90;;;14.00;99.90;;;;;;5073920;28;20161;-43
2021/07/07 09:08:14;;;;;;;1999.90;999.90;;;13.70;99.90;;;;;;5073957;28;20159;-51
2021/07/07 09:10:40;;;;;;;1999.90;999.90;;;13.20;99.90;;;;;;5074170;28;20164;-48
2021/07/07 09:13:12;;;;;;;1999.90;999.90;;;13.00;99.90;;;;;;5073538;28;20228;-49
2021/07/07 09:15:40;;;;;;;1999.90;999.90;;;12.90;99.90;;;;;;5073827;28;20184;-49
2021/07/07 09:18:07;;;;;;;1999.90;999.90;;;13.00;99.90;;;;;;5074193;28;20176;-49
2021/07/07 09:20:40;;;;;;;1999.90;999.90;;;13.10;99.90;;;;;;5073447;28;20176;-43
2021/07/07 09:23:23;;;;;;;1999.90;999.90;;;13.40;99.90;;;;;;5073608;28;20553;-44
2021/07/07 09:25:56;;;;;;;1999.90;999.90;;;13.40;99.90;;;;;;5073897;28;20161;-47
2021/07/07 09:28:26;;;;;;;1999.90;999.90;;;13.50;99.90;;;;;;5073223;28;20176;-46
2021/07/07 09:31:00;;;;;;;1999.90;999.90;;;13.70;99.90;;;;;;5073638;28;20176;-44
2021/07/07 09:33:27;;;;;;;1999.90;999.90;;;13.70;99.90;;;;;;5073753;28;20172;-50
2021/07/07 09:36:18;;;;;;;1999.90;999.90;;;14.00;99.90;;;;;;5073067;28;20172;-46
2021/07/07 09:38:45;;;;;;;1999.90;999.90;;;14.20;99.90;;;;;;5073271;28;20204;-50
2021/07/07 09:41:13;;;;;;;1999.90;999.90;;;14.70;99.90;;;;;;5073282;28;20168;-49
2021/07/07 09:43:51;;;;;;;1999.90;999.90;;;14.70;99.90;;;;;;5073445;28;20544;-54
2021/07/07 09:46:22;;;;;;;1999.90;999.90;;;14.80;99.90;;;;;;5073747;28;20201;-59
2021/07/07 09:48:51;;;;;;;1999.90;999.90;;;15.10;99.90;;;;;;5073424;28;20153;-54
2021/07/07 09:51:19;;;;;;;1999.90;999.90;;;15.30;99.00;;;;;;5073409;28;20164;-53
2021/07/07 09:53:46;;;;;;;1999.90;999.90;;;15.40;96.90;;;;;;5071534;28;20178;-51
2021/07/07 09:56:13;;;;;;;1999.90;999.90;;;15.40;96.00;;;;;;5072989;28;20189;-56
2021/07/07 09:58:40;;;;;;;1999.90;999.90;;;15.40;99.90;;;;;;5071822;28;20199;-49
2021/07/07 10:01:07;;;;;;;1999.90;999.90;;;15.70;99.90;;;;;;5072972;28;20176;-51
2021/07/07 10:03:34;;;;;;;1999.90;999.90;;;15.80;95.80;;;;;;5072663;28;20196;-54
2021/07/07 10:06:02;;;;;;;1999.90;999.90;;;15.80;97.20;;;;;;5072179;28;20156;-52
2021/07/07 10:08:30;;;;;;;1999.90;999.90;;;15.90;98.20;;;;;;5053690;28;20187;-57
2021/07/07 10:11:01;;;;;;;1999.90;999.90;;;15.90;98.70;;;;;;5070695;28;20635;-57
2021/07/07 10:13:28;;;;;;;1999.90;999.90;;;15.90;99.90;;;;;;5047762;28;20599;-53
2021/07/07 10:15:55;;;;;;;1999.90;999.90;;;16.60;99.90;;;;;;5032515;28;20518;-50
2021/07/07 10:18:23;;;;;;;1999.90;999.90;;;17.50;97.50;;;;;;5031802;28;20178;-45
2021/07/07 10:20:51;;;;;;;1999.90;999.90;;;18.10;93.50;;;;;;5032591;28;20174;-54
2021/07/07 10:23:19;;;;;;;1999.90;999.90;;;18.20;88.50;;;;;;5032726;28;20236;-48
2021/07/07 10:25:46;;;;;;;1999.90;999.90;;;18.60;89.30;;;;;;5032442;28;20188;-46
2021/07/07 10:28:16;;;;;;;1999.90;999.90;;;19.10;86.00;;;;;;5032874;28;20633;-53
2021/07/07 10:30:57;;;;;;;1999.90;999.90;;;19.40;81.30;;;;;;5032269;28;20260;-54
2021/07/07 10:33:27;;;;;;;1999.90;999.90;;;19.80;81.40;;;;;;5032550;28;20260;-53
2021/07/07 10:36:24;;;;;;;1999.90;999.90;;;19.90;77.40;;;;;;5032101;28;20194;-53
2021/07/07 10:39:00;;;;;;;1999.90;999.90;;;20.10;69.30;;;;;;5027743;28;20233;-49
2021/07/07 10:41:46;;;;;;;1999.90;999.90;;;20.40;66.10;;;;;;5032282;28;20161;-60
2021/07/07 10:44:32;;;;;;;1999.90;999.90;;;20.30;65.90;;;;;;5032169;28;20520;-57
2021/07/07 10:47:13;;;;;;;1999.90;999.90;;;19.50;72.10;;;;;;5022297;28;20204;-57
2021/07/07 10:49:46;;;;;;;1999.90;999.90;;;19.20;67.10;;;;;;5031750;28;20162;-55
2021/07/07 10:52:20;;;;;;;1999.90;999.90;;;18.90;72.60;;;;;;5031728;28;20177;-59
2021/07/07 10:55:01;;;;;;;1999.90;999.90;;;18.70;79.90;;;;;;5030948;28;20307;-54
2021/07/07 10:57:40;;;;;;;1999.90;999.90;;;19.40;82.60;;;;;;5031836;28;20524;-61
2021/07/07 11:00:41;;;;;;;1999.90;999.90;;;20.00;73.40;;;;;;5032223;28;20154;-60
2021/07/07 11:03:39;;;;;;;1999.90;999.90;;;20.50;68.60;;;;;;5031964;28;20248;-51
2021/07/07 11:06:27;;;;;;;1999.90;999.90;;;20.80;66.80;;;;;;5031953;28;20154;-49
2021/07/07 11:09:13;;;;;;;1999.90;999.90;;;21.10;63.10;;;;;;5031793;28;20243;-57
2021/07/07 11:11:42;;;;;;;1999.90;999.90;;;21.40;57.50;;;;;;5041903;28;20208;-54
2021/07/07 11:14:16;;;;;;;1999.90;999.90;;;21.50;58.80;;;;;;5071792;28;20585;-50
2021/07/07 11:16:54;;;;;;;1999.90;999.90;;;21.60;58.10;;;;;;5071731;28;20165;-50
2021/07/07 11:19:45;;;;;;;1999.90;999.90;;;21.70;57.90;;;;;;5071564;28;20180;-44
2021/07/07 11:22:14;;;;;;;1999.90;999.90;;;21.40;53.00;;;;;;5071854;28;20153;-48
2021/07/07 11:24:50;;;;;;;1999.90;999.90;;;21.40;58.00;;;;;;5071406;28;20176;-45
2021/07/07 11:27:18;;;;;;;1999.90;999.90;;;21.60;58.40;;;;;;5070854;28;20549;-53
2021/07/07 11:29:45;;;;;;;1999.90;999.90;;;21.20;57.40;;;;;;5071613;28;20172;-58
2021/07/07 11:32:26;;;;;;;1999.90;999.90;;;20.70;55.60;;;;;;5071204;28;20535;-47
2021/07/07 11:34:58;;;;;;;1999.90;999.90;;;20.20;58.20;;;;;;5071591;28;20251;-57
2021/07/07 11:37:30;;;;;;;1999.90;999.90;;;19.80;58.60;;;;;;5071041;28;20171;-55
2021/07/07 11:40:19;;;;;;;1999.90;999.90;;;19.60;59.90;;;;;;5070951;28;20165;-62
2021/07/07 11:43:12;;;;;;;1999.90;999.90;;;19.60;69.80;;;;;;5071165;28;20483;-60
2021/07/07 11:45:47;;;;;;;1999.90;999.90;;;19.80;60.30;;;;;;5071438;28;20168;-58
2021/07/07 11:48:25;;;;;;;1999.90;999.90;;;19.90;66.70;;;;;;5070860;28;20172;-52
2021/07/07 11:51:05;;;;;;;1999.90;999.90;;;20.10;64.90;;;;;;5053030;28;20178;-60
2021/07/07 11:53:42;;;;;;;1999.90;999.90;;;20.30;64.90;;;;;;5070581;28;20167;-62
2021/07/07 11:56:14;;;;;;;1999.90;999.90;;;20.30;63.70;;;;;;5071584;28;20239;-60
2021/07/07 11:59:02;;;;;;;1999.90;999.90;;;20.30;69.30;;;;;;5070780;28;20172;-56
2021/07/07 12:01:33;;;;;;;1999.90;999.90;;;20.20;73.20;;;;;;5071023;28;20157;-55
2021/07/07 12:04:03;;;;;;;1999.90;999.90;;;20.60;69.00;;;;;;5070867;28;20640;-54
2021/07/07 12:06:44;;;;;;;1999.90;999.90;;;20.80;71.00;;;;;;5071210;28;20153;-48
2021/07/07 12:09:22;;;;;;;1999.90;999.90;;;21.00;68.00;;;;;;5071290;28;20658;-52
2021/07/07 12:11:59;;;;;;;1999.90;999.90;;;21.10;63.10;;;;;;5070853;28;20254;-55
2021/07/07 12:14:29;;;;;;;1999.90;999.90;;;21.00;62.30;;;;;;5070351;28;20567;-56
2021/07/07 12:16:57;;;;;;;1999.90;999.90;;;20.80;61.10;;;;;;5071056;28;20204;-52